sensor_id;sensor_type;location;lat;lon;timestamp;P1;durP1;ratioP1;P2;durP2;ratioP2
3777;SDS011;1904;50.076;8.660;2023-05-24T15:19:39;8.30;;;3.00;;
3777;SDS011;1904;50.076;8.660;2023-05-24T15:22:14;9.97;;;2.80;;
3777;SDS011;1904;50.076;8.660;2023-05-24T15:24:50;6.80;;;2.67;;
3777;SDS011;1904;50.076;8.660;2023-05-24T15:27:15;4.50;;;2.30;;
3777;SDS011;1904;50.076;8.660;2023-05-24T15:29:44;10.13;;;2.67;;
3777;SDS011;1904;50.076;8.660;2023-05-24T15:32:14;5.50;;;2.63;;
3777;SDS011;1904;50.076;8.660;2023-05-24T15:34:39;6.87;;;2.50;;
3777;SDS011;1904;50.076;8.660;2023-05-24T15:37:14;6.37;;;2.67;;
3777;SDS011;1904;50.076;8.660;2023-05-24T15:39:44;5.70;;;2.50;;
3777;SDS011;1904;50.076;8.660;2023-05-24T15:42:14;8.03;;;2.30;;
3777;SDS011;1904;50.076;8.660;2023-05-24T15:50:50;8.53;;;2.37;;
3777;SDS011;1904;50.076;8.660;2023-05-24T15:53:15;7.60;;;2.13;;
3777;SDS011;1904;50.076;8.660;2023-05-24T15:55:44;8.13;;;2.40;;
3777;SDS011;1904;50.076;8.660;2023-05-24T15:58:14;11.47;;;2.30;;
3777;SDS011;1904;50.076;8.660;2023-05-24T16:06:14;5.33;;;2.40;;
3777;SDS011;1904;50.076;8.660;2023-05-24T16:08:44;7.10;;;2.70;;
3777;SDS011;1904;50.076;8.660;2023-05-24T16:14:44;7.03;;;2.20;;
3777;SDS011;1904;50.076;8.660;2023-05-24T16:17:14;4.23;;;2.30;;
3777;SDS011;1904;50.076;8.660;2023-05-24T16:26:14;10.33;;;2.70;;
3777;SDS011;1904;50.076;8.660;2023-05-24T16:28:44;7.93;;;2.77;;
3777;SDS011;1904;50.076;8.660;2023-05-24T16:37:08;9.07;;;2.40;;
3777;SDS011;1904;50.076;8.660;2023-05-24T16:46:08;8.73;;;2.43;;
3777;SDS011;1904;50.076;8.660;2023-05-24T16:55:18;6.90;;;2.47;;
3777;SDS011;1904;50.076;8.660;2023-05-24T17:01:08;6.13;;;2.80;;
3777;SDS011;1904;50.076;8.660;2023-05-24T17:03:34;4.53;;;1.93;;
3777;SDS011;1904;50.076;8.660;2023-05-24T17:09:21;8.73;;;2.30;;
3777;SDS011;1904;50.076;8.660;2023-05-24T17:15:08;7.03;;;2.60;;
3777;SDS011;1904;50.076;8.660;2023-05-24T17:21:00;8.67;;;2.70;;
3777;SDS011;1904;50.076;8.660;2023-05-24T17:23:29;8.87;;;2.43;;
3777;SDS011;1904;50.076;8.660;2023-05-24T17:28:56;7.57;;;2.83;;
3777;SDS011;1904;50.076;8.660;2023-05-24T17:44:50;8.77;;;3.10;;
3777;SDS011;1904;50.076;8.660;2023-05-24T17:50:38;11.30;;;2.87;;
3777;SDS011;1904;50.076;8.660;2023-05-24T18:02:31;8.00;;;2.93;;
3777;SDS011;1904;50.076;8.660;2023-05-24T18:05:02;9.60;;;2.80;;
3777;SDS011;1904;50.076;8.660;2023-05-24T18:10:50;7.80;;;2.90;;
3777;SDS011;1904;50.076;8.660;2023-05-24T18:19:31;5.80;;;2.90;;
3777;SDS011;1904;50.076;8.660;2023-05-24T18:22:02;8.07;;;3.10;;
3777;SDS011;1904;50.076;8.660;2023-05-24T18:24:32;7.70;;;2.80;;
3777;SDS011;1904;50.076;8.660;2023-05-24T18:27:14;7.77;;;2.70;;
3777;SDS011;1904;50.076;8.660;2023-05-24T18:29:44;5.60;;;2.50;;
3777;SDS011;1904;50.076;8.660;2023-05-24T18:32:26;8.00;;;3.03;;
3777;SDS011;1904;50.076;8.660;2023-05-24T18:41:20;8.67;;;2.93;;
3777;SDS011;1904;50.076;8.660;2023-05-24T18:56:38;11.53;;;2.60;;
3777;SDS011;1904;50.076;8.660;2023-05-24T19:08:31;16.37;;;2.73;;
3777;SDS011;1904;50.076;8.660;2023-05-24T19:17:20;14.70;;;2.83;;
3777;SDS011;1904;50.076;8.660;2023-05-24T19:19:47;11.47;;;3.10;;
3777;SDS011;1904;50.076;8.660;2023-05-24T19:22:13;8.07;;;3.20;;
3777;SDS011;1904;50.076;8.660;2023-05-24T19:24:44;13.90;;;2.90;;
3777;SDS011;1904;50.076;8.660;2023-05-24T19:27:20;11.30;;;3.80;;
3777;SDS011;1904;50.076;8.660;2023-05-24T19:29:46;12.10;;;3.27;;
3777;SDS011;1904;50.076;8.660;2023-05-24T19:32:14;8.60;;;3.30;;
3777;SDS011;1904;50.076;8.660;2023-05-24T19:34:44;8.97;;;3.17;;
3777;SDS011;1904;50.076;8.660;2023-05-24T19:40:32;13.47;;;3.70;;
3777;SDS011;1904;50.076;8.660;2023-05-24T19:46:21;10.43;;;2.77;;
3777;SDS011;1904;50.076;8.660;2023-05-24T20:01:44;10.37;;;3.30;;
3777;SDS011;1904;50.076;8.660;2023-05-24T20:32:14;9.40;;;3.27;;
3777;SDS011;1904;50.076;8.660;2023-05-24T20:44:14;15.00;;;3.30;;
3777;SDS011;1904;50.076;8.660;2023-05-24T20:46:44;9.23;;;3.50;;
3777;SDS011;1904;50.076;8.660;2023-05-24T20:55:14;8.93;;;3.40;;
3777;SDS011;1904;50.076;8.660;2023-05-24T20:57:40;11.77;;;3.77;;
3777;SDS011;1904;50.076;8.660;2023-05-24T21:00:08;9.53;;;3.57;;
3777;SDS011;1904;50.076;8.660;2023-05-24T21:02:38;13.20;;;4.07;;
3777;SDS011;1904;50.076;8.660;2023-05-24T21:05:04;12.70;;;3.00;;
3777;SDS011;1904;50.076;8.660;2023-05-24T21:07:30;13.83;;;3.40;;
3777;SDS011;1904;50.076;8.660;2023-05-24T21:10:15;9.80;;;3.20;;
3777;SDS011;1904;50.076;8.660;2023-05-24T21:19:14;15.17;;;3.47;;
3777;SDS011;1904;50.076;8.660;2023-05-24T21:21:44;8.80;;;3.47;;
3777;SDS011;1904;50.076;8.660;2023-05-24T21:24:10;8.70;;;3.50;;
3777;SDS011;1904;50.076;8.660;2023-05-24T21:26:35;8.07;;;3.20;;
3777;SDS011;1904;50.076;8.660;2023-05-24T21:29:01;9.97;;;3.50;;
3777;SDS011;1904;50.076;8.660;2023-05-24T21:31:32;12.73;;;3.83;;
3777;SDS011;1904;50.076;8.660;2023-05-24T21:33:59;14.63;;;3.87;;
3777;SDS011;1904;50.076;8.660;2023-05-24T21:36:25;8.27;;;3.43;;
3777;SDS011;1904;50.076;8.660;2023-05-24T21:38:51;12.73;;;3.33;;
3777;SDS011;1904;50.076;8.660;2023-05-24T21:50:14;9.00;;;3.30;;
3777;SDS011;1904;50.076;8.660;2023-05-24T21:52:44;10.17;;;4.00;;
3777;SDS011;1904;50.076;8.660;2023-05-24T21:55:14;14.10;;;4.03;;
3777;SDS011;1904;50.076;8.660;2023-05-24T21:57:40;12.40;;;4.40;;
3777;SDS011;1904;50.076;8.660;2023-05-24T22:00:05;7.90;;;3.47;;
3777;SDS011;1904;50.076;8.660;2023-05-24T22:02:44;14.63;;;4.40;;
3777;SDS011;1904;50.076;8.660;2023-05-24T22:05:14;11.37;;;4.30;;
3777;SDS011;1904;50.076;8.660;2023-05-24T22:07:40;8.60;;;3.50;;
3777;SDS011;1904;50.076;8.660;2023-05-24T22:10:08;7.90;;;3.67;;
3777;SDS011;1904;50.076;8.660;2023-05-24T22:12:35;4.30;;;3.10;;
3777;SDS011;1904;50.076;8.660;2023-05-24T22:15:02;13.80;;;3.60;;
3777;SDS011;1904;50.076;8.660;2023-05-24T22:17:29;14.13;;;3.47;;
3777;SDS011;1904;50.076;8.660;2023-05-24T22:19:57;7.70;;;2.93;;
3777;SDS011;1904;50.076;8.660;2023-05-24T22:22:26;11.37;;;4.80;;
3777;SDS011;1904;50.076;8.660;2023-05-24T22:24:52;13.93;;;3.40;;
3777;SDS011;1904;50.076;8.660;2023-05-24T22:27:19;9.03;;;3.20;;
3777;SDS011;1904;50.076;8.660;2023-05-24T22:29:45;14.27;;;4.43;;
3777;SDS011;1904;50.076;8.660;2023-05-24T22:32:11;8.13;;;3.57;;
3777;SDS011;1904;50.076;8.660;2023-05-24T22:34:37;9.70;;;3.40;;
3777;SDS011;1904;50.076;8.660;2023-05-24T22:37:03;9.63;;;3.87;;
3777;SDS011;1904;50.076;8.660;2023-05-24T22:39:29;13.03;;;3.47;;
3777;SDS011;1904;50.076;8.660;2023-05-24T22:41:58;9.90;;;3.17;;
3777;SDS011;1904;50.076;8.660;2023-05-24T22:44:24;5.20;;;2.73;;
3777;SDS011;1904;50.076;8.660;2023-05-24T22:50:14;7.10;;;2.93;;
3777;SDS011;1904;50.076;8.660;2023-05-24T22:52:44;8.40;;;2.50;;
3777;SDS011;1904;50.076;8.660;2023-05-24T22:55:14;6.87;;;2.37;;
3777;SDS011;1904;50.076;8.660;2023-05-24T22:57:40;10.73;;;2.60;;
3777;SDS011;1904;50.076;8.660;2023-05-24T23:00:06;3.20;;;2.30;;
3777;SDS011;1904;50.076;8.660;2023-05-24T23:02:32;8.63;;;2.63;;
3777;SDS011;1904;50.076;8.660;2023-05-24T23:05:02;4.63;;;2.00;;
3777;SDS011;1904;50.076;8.660;2023-05-24T23:07:29;7.50;;;2.47;;
3777;SDS011;1904;50.076;8.660;2023-05-24T23:09:55;3.37;;;1.80;;
3777;SDS011;1904;50.076;8.660;2023-05-24T23:12:26;7.30;;;2.37;;
3777;SDS011;1904;50.076;8.660;2023-05-24T23:15:02;2.30;;;1.97;;
3777;SDS011;1904;50.076;8.660;2023-05-24T23:17:28;5.53;;;2.20;;
3777;SDS011;1904;50.076;8.660;2023-05-24T23:19:56;4.73;;;2.27;;
3777;SDS011;1904;50.076;8.660;2023-05-24T23:22:26;6.97;;;2.30;;
3777;SDS011;1904;50.076;8.660;2023-05-24T23:24:52;3.27;;;2.00;;
3777;SDS011;1904;50.076;8.660;2023-05-24T23:27:32;4.13;;;2.27;;
3777;SDS011;1904;50.076;8.660;2023-05-24T23:29:58;8.10;;;2.53;;
3777;SDS011;1904;50.076;8.660;2023-05-24T23:32:26;7.00;;;2.67;;
3777;SDS011;1904;50.076;8.660;2023-05-24T23:40:40;4.27;;;2.20;;
